Weather

Partly Cloudy
Saturday 12/15 0%
Partly Cloudy
Partly cloudy. Lows overnight in the low 30s.
Partly Cloudy
Sunday 12/16 0%
Partly Cloudy
Intervals of clouds and sunshine in the morning with more clouds for later in the day. High around 55F. Winds light and variable.
Partly Cloudy
Monday 12/17 0%
Partly Cloudy
Partly cloudy skies in the morning will give way to cloudy skies during the afternoon. High near 55F. Winds SSW at 5 to 10 mph.
Partly Cloudy
Tuesday 12/18 10%
Partly Cloudy
Sunshine and clouds mixed. High 52F. Winds NW at 10 to 20 mph.
Clear
Wednesday 12/19 0%
Clear
Sunny. High 56F. Winds NNW at 15 to 25 mph. Winds could occasionally gust over 40 mph.

 

 

For a detailed forecast click the banner below.

ballooncastlogo

 

 

Available data for KABQ from the past 2 hours
ALBUQUERQUE, NM
Metar
KABQ 152252Z 20006KT 10SM FEW150 BKN220 BKN300 07/M12 A3027 RMK AO2 SLP250 ACSL E T00671117

22:52 UTC

Wind: 200° 6kt

Visibility: 10 SM

Sky: FEW 15000 ft

Temp: 7 deg C / 44.6 deg F

Dewpoint: -12 deg C / 10.4 deg F

Pressure: 30.27 inHg

TAF
KABQ 151720Z 1518/1618 VRB06KT P6SM SCT150 BKN200